sensor_id;sensor_type;location;lat;lon;timestamp;temperature;humidity
26947;DHT22;14501;52.282;10.560;2023-05-16T00:01:48;9.90;99.90
26947;DHT22;14501;52.282;10.560;2023-05-16T00:04:14;9.90;99.90
26947;DHT22;14501;52.282;10.560;2023-05-16T00:06:40;9.90;99.90
26947;DHT22;14501;52.282;10.560;2023-05-16T00:09:06;9.90;99.90
26947;DHT22;14501;52.282;10.560;2023-05-16T00:11:31;9.90;99.90
26947;DHT22;14501;52.282;10.560;2023-05-16T00:13:57;9.90;99.90
26947;DHT22;14501;52.282;10.560;2023-05-16T00:16:23;9.90;99.90
26947;DHT22;14501;52.282;10.560;2023-05-16T00:18:50;10.00;99.90
26947;DHT22;14501;52.282;10.560;2023-05-16T00:21:17;10.00;99.90
26947;DHT22;14501;52.282;10.560;2023-05-16T00:23:43;10.00;99.90
26947;DHT22;14501;52.282;10.560;2023-05-16T00:26:08;10.00;99.90
26947;DHT22;14501;52.282;10.560;2023-05-16T00:28:34;10.10;99.90
26947;DHT22;14501;52.282;10.560;2023-05-16T00:31:00;10.10;99.90
26947;DHT22;14501;52.282;10.560;2023-05-16T00:33:26;10.10;99.90
26947;DHT22;14501;52.282;10.560;2023-05-16T00:35:51;10.20;99.90
26947;DHT22;14501;52.282;10.560;2023-05-16T00:38:18;10.20;99.90
26947;DHT22;14501;52.282;10.560;2023-05-16T00:40:44;10.20;99.90
26947;DHT22;14501;52.282;10.560;2023-05-16T00:43:09;10.30;99.90
26947;DHT22;14501;52.282;10.560;2023-05-16T00:45:35;10.30;99.90
26947;DHT22;14501;52.282;10.560;2023-05-16T00:48:01;10.30;99.90
26947;DHT22;14501;52.282;10.560;2023-05-16T00:50:26;10.30;99.90
26947;DHT22;14501;52.282;10.560;2023-05-16T00:52:52;10.30;99.90
26947;DHT22;14501;52.282;10.560;2023-05-16T00:55:18;10.30;99.90
26947;DHT22;14501;52.282;10.560;2023-05-16T00:57:43;10.40;99.90
26947;DHT22;14501;52.282;10.560;2023-05-16T01:00:09;10.40;99.90
26947;DHT22;14501;52.282;10.560;2023-05-16T01:02:36;10.40;99.90
26947;DHT22;14501;52.282;10.560;2023-05-16T01:05:03;10.40;99.90
26947;DHT22;14501;52.282;10.560;2023-05-16T01:07:34;10.30;99.90
26947;DHT22;14501;52.282;10.560;2023-05-16T01:10:01;10.10;99.90
26947;DHT22;14501;52.282;10.560;2023-05-16T01:15:24;10.40;99.90
26947;DHT22;14501;52.282;10.560;2023-05-16T01:18:11;10.40;99.90
26947;DHT22;14501;52.282;10.560;2023-05-16T01:21:02;10.40;99.90
26947;DHT22;14501;52.282;10.560;2023-05-16T01:26:26;10.90;99.90
26947;DHT22;14501;52.282;10.560;2023-05-16T01:28:53;10.50;99.90
26947;DHT22;14501;52.282;10.560;2023-05-16T01:31:20;10.50;99.90
26947;DHT22;14501;52.282;10.560;2023-05-16T01:33:46;10.50;99.90
26947;DHT22;14501;52.282;10.560;2023-05-16T01:39:12;10.70;99.90
26947;DHT22;14501;52.282;10.560;2023-05-16T01:47:00;10.60;99.90
26947;DHT22;14501;52.282;10.560;2023-05-16T01:49:34;10.50;99.90
26947;DHT22;14501;52.282;10.560;2023-05-16T01:52:07;10.60;99.90
26947;DHT22;14501;52.282;10.560;2023-05-16T01:54:37;10.60;99.90
26947;DHT22;14501;52.282;10.560;2023-05-16T01:57:05;10.50;99.90
26947;DHT22;14501;52.282;10.560;2023-05-16T01:59:33;10.50;99.90
26947;DHT22;14501;52.282;10.560;2023-05-16T02:01:59;10.60;99.90
26947;DHT22;14501;52.282;10.560;2023-05-16T02:04:25;10.70;99.90
26947;DHT22;14501;52.282;10.560;2023-05-16T02:06:51;10.60;99.90
26947;DHT22;14501;52.282;10.560;2023-05-16T02:09:16;10.50;99.90
26947;DHT22;14501;52.282;10.560;2023-05-16T02:11:42;10.50;99.90
26947;DHT22;14501;52.282;10.560;2023-05-16T02:16:34;10.50;99.90
26947;DHT22;14501;52.282;10.560;2023-05-16T02:19:00;10.50;99.90
26947;DHT22;14501;52.282;10.560;2023-05-16T02:21:25;11.40;99.90
26947;DHT22;14501;52.282;10.560;2023-05-16T02:23:51;11.30;99.90
26947;DHT22;14501;52.282;10.560;2023-05-16T02:28:43;10.40;99.90
26947;DHT22;14501;52.282;10.560;2023-05-16T02:31:09;10.50;99.90
26947;DHT22;14501;52.282;10.560;2023-05-16T02:33:35;10.40;99.90
26947;DHT22;14501;52.282;10.560;2023-05-16T02:36:00;10.50;99.90
26947;DHT22;14501;52.282;10.560;2023-05-16T02:38:26;10.60;99.90
26947;DHT22;14501;52.282;10.560;2023-05-16T02:40:52;11.10;99.90
26947;DHT22;14501;52.282;10.560;2023-05-16T02:43:17;10.40;99.90
26947;DHT22;14501;52.282;10.560;2023-05-16T02:45:43;10.70;99.90
26947;DHT22;14501;52.282;10.560;2023-05-16T02:48:12;10.50;99.90
26947;DHT22;14501;52.282;10.560;2023-05-16T02:50:38;10.50;99.90
26947;DHT22;14501;52.282;10.560;2023-05-16T02:53:04;10.50;99.90
26947;DHT22;14501;52.282;10.560;2023-05-16T02:55:30;10.50;99.90
26947;DHT22;14501;52.282;10.560;2023-05-16T02:57:56;10.60;99.90
26947;DHT22;14501;52.282;10.560;2023-05-16T03:00:22;10.50;99.90
26947;DHT22;14501;52.282;10.560;2023-05-16T03:02:47;10.60;99.90
26947;DHT22;14501;52.282;10.560;2023-05-16T03:05:13;10.50;99.90
26947;DHT22;14501;52.282;10.560;2023-05-16T03:07:39;10.90;99.90
26947;DHT22;14501;52.282;10.560;2023-05-16T03:10:05;10.50;99.90
26947;DHT22;14501;52.282;10.560;2023-05-16T03:12:31;10.60;99.90
26947;DHT22;14501;52.282;10.560;2023-05-16T03:14:57;10.60;99.90
26947;DHT22;14501;52.282;10.560;2023-05-16T03:17:22;12.00;99.90
26947;DHT22;14501;52.282;10.560;2023-05-16T03:19:49;11.40;99.90
26947;DHT22;14501;52.282;10.560;2023-05-16T03:22:15;10.60;99.90
26947;DHT22;14501;52.282;10.560;2023-05-16T03:24:41;10.60;99.90
26947;DHT22;14501;52.282;10.560;2023-05-16T03:27:06;10.60;99.90
26947;DHT22;14501;52.282;10.560;2023-05-16T03:29:32;11.00;99.90
26947;DHT22;14501;52.282;10.560;2023-05-16T03:31:58;10.70;99.90
26947;DHT22;14501;52.282;10.560;2023-05-16T03:34:23;10.70;99.90
26947;DHT22;14501;52.282;10.560;2023-05-16T03:36:49;11.60;99.90
26947;DHT22;14501;52.282;10.560;2023-05-16T03:39:16;10.70;99.90
26947;DHT22;14501;52.282;10.560;2023-05-16T03:41:42;10.70;99.90
26947;DHT22;14501;52.282;10.560;2023-05-16T03:44:08;10.60;99.90
26947;DHT22;14501;52.282;10.560;2023-05-16T03:46:34;10.80;99.90
26947;DHT22;14501;52.282;10.560;2023-05-16T03:49:00;10.70;99.90
26947;DHT22;14501;52.282;10.560;2023-05-16T03:51:26;10.80;99.90
26947;DHT22;14501;52.282;10.560;2023-05-16T03:53:53;11.30;99.90
26947;DHT22;14501;52.282;10.560;2023-05-16T03:56:19;10.70;99.90
26947;DHT22;14501;52.282;10.560;2023-05-16T03:58:46;10.90;99.90
26947;DHT22;14501;52.282;10.560;2023-05-16T04:01:13;10.60;99.90
26947;DHT22;14501;52.282;10.560;2023-05-16T04:03:38;10.50;99.90
26947;DHT22;14501;52.282;10.560;2023-05-16T04:06:05;10.40;99.90
26947;DHT22;14501;52.282;10.560;2023-05-16T04:08:32;10.40;99.90
26947;DHT22;14501;52.282;10.560;2023-05-16T04:10:58;10.40;99.90
26947;DHT22;14501;52.282;10.560;2023-05-16T04:13:23;10.40;99.90
26947;DHT22;14501;52.282;10.560;2023-05-16T04:15:49;10.80;99.90
26947;DHT22;14501;52.282;10.560;2023-05-16T04:18:15;10.40;99.90
26947;DHT22;14501;52.282;10.560;2023-05-16T04:20:41;10.50;99.90
26947;DHT22;14501;52.282;10.560;2023-05-16T04:23:07;10.40;99.90
26947;DHT22;14501;52.282;10.560;2023-05-16T04:25:35;10.30;99.90
26947;DHT22;14501;52.282;10.560;2023-05-16T04:28:01;11.20;99.90
26947;DHT22;14501;52.282;10.560;2023-05-16T04:32:52;10.20;99.90
26947;DHT22;14501;52.282;10.560;2023-05-16T04:35:18;10.20;99.90
26947;DHT22;14501;52.282;10.560;2023-05-16T04:37:44;10.30;99.90
26947;DHT22;14501;52.282;10.560;2023-05-16T04:40:10;10.10;99.90
26947;DHT22;14501;52.282;10.560;2023-05-16T04:45:03;10.00;99.90
26947;DHT22;14501;52.282;10.560;2023-05-16T04:47:31;10.00;99.90
26947;DHT22;14501;52.282;10.560;2023-05-16T04:49:56;10.20;99.90
26947;DHT22;14501;52.282;10.560;2023-05-16T04:52:22;10.10;99.90
26947;DHT22;14501;52.282;10.560;2023-05-16T04:54:50;10.20;99.90
26947;DHT22;14501;52.282;10.560;2023-05-16T04:57:16;10.30;99.90
26947;DHT22;14501;52.282;10.560;2023-05-16T04:59:42;10.30;99.90
26947;DHT22;14501;52.282;10.560;2023-05-16T05:02:08;11.30;99.90
26947;DHT22;14501;52.282;10.560;2023-05-16T05:04:34;10.50;99.90
26947;DHT22;14501;52.282;10.560;2023-05-16T05:07:00;10.60;99.90
26947;DHT22;14501;52.282;10.560;2023-05-16T05:09:25;10.70;99.90
26947;DHT22;14501;52.282;10.560;2023-05-16T05:11:51;11.20;99.90
26947;DHT22;14501;52.282;10.560;2023-05-16T05:14:17;10.90;99.90
26947;DHT22;14501;52.282;10.560;2023-05-16T05:16:42;11.00;99.90
26947;DHT22;14501;52.282;10.560;2023-05-16T05:19:08;11.20;99.90
26947;DHT22;14501;52.282;10.560;2023-05-16T05:21:34;11.30;99.90
26947;DHT22;14501;52.282;10.560;2023-05-16T05:23:59;11.50;99.90
26947;DHT22;14501;52.282;10.560;2023-05-16T05:26:25;11.70;99.90
26947;DHT22;14501;52.282;10.560;2023-05-16T05:28:51;11.90;99.90
26947;DHT22;14501;52.282;10.560;2023-05-16T05:31:16;12.20;99.90
26947;DHT22;14501;52.282;10.560;2023-05-16T05:33:42;12.40;99.90
26947;DHT22;14501;52.282;10.560;2023-05-16T05:36:08;12.50;99.90
26947;DHT22;14501;52.282;10.560;2023-05-16T05:38:33;12.50;99.90
26947;DHT22;14501;52.282;10.560;2023-05-16T05:40:59;12.60;99.90
26947;DHT22;14501;52.282;10.560;2023-05-16T05:43:25;12.70;99.90
26947;DHT22;14501;52.282;10.560;2023-05-16T05:45:51;12.80;99.90
26947;DHT22;14501;52.282;10.560;2023-05-16T05:48:16;12.80;99.90
26947;DHT22;14501;52.282;10.560;2023-05-16T05:50:42;12.80;99.90
26947;DHT22;14501;52.282;10.560;2023-05-16T05:53:08;12.70;99.90
26947;DHT22;14501;52.282;10.560;2023-05-16T05:55:33;12.30;99.90
26947;DHT22;14501;52.282;10.560;2023-05-16T05:57:59;12.00;99.90
26947;DHT22;14501;52.282;10.560;2023-05-16T06:00:25;11.70;99.90
26947;DHT22;14501;52.282;10.560;2023-05-16T06:02:50;11.60;99.90
26947;DHT22;14501;52.282;10.560;2023-05-16T06:05:16;11.20;99.90
26947;DHT22;14501;52.282;10.560;2023-05-16T06:07:41;11.00;99.90
26947;DHT22;14501;52.282;10.560;2023-05-16T06:10:07;12.10;99.90
26947;DHT22;14501;52.282;10.560;2023-05-16T06:12:33;10.80;99.90
26947;DHT22;14501;52.282;10.560;2023-05-16T06:14:58;10.60;99.90
26947;DHT22;14501;52.282;10.560;2023-05-16T06:17:24;11.00;99.90
26947;DHT22;14501;52.282;10.560;2023-05-16T06:19:50;10.70;99.90
26947;DHT22;14501;52.282;10.560;2023-05-16T06:22:15;10.70;99.90
26947;DHT22;14501;52.282;10.560;2023-05-16T06:24:41;10.80;99.90
26947;DHT22;14501;52.282;10.560;2023-05-16T06:27:07;11.10;99.90
26947;DHT22;14501;52.282;10.560;2023-05-16T06:29:33;11.30;99.90
26947;DHT22;14501;52.282;10.560;2023-05-16T06:31:58;11.30;99.90
26947;DHT22;14501;52.282;10.560;2023-05-16T06:34:24;11.40;99.90
26947;DHT22;14501;52.282;10.560;2023-05-16T06:36:53;11.70;99.90
26947;DHT22;14501;52.282;10.560;2023-05-16T06:39:19;11.70;99.90
26947;DHT22;14501;52.282;10.560;2023-05-16T06:44:11;11.90;99.90
26947;DHT22;14501;52.282;10.560;2023-05-16T06:46:36;12.20;99.90
26947;DHT22;14501;52.282;10.560;2023-05-16T06:49:03;12.40;99.90
26947;DHT22;14501;52.282;10.560;2023-05-16T06:51:29;13.00;99.90
26947;DHT22;14501;52.282;10.560;2023-05-16T06:53:55;12.40;99.90
26947;DHT22;14501;52.282;10.560;2023-05-16T06:56:21;12.40;99.90
26947;DHT22;14501;52.282;10.560;2023-05-16T06:58:46;12.60;99.90
26947;DHT22;14501;52.282;10.560;2023-05-16T07:01:14;12.70;99.90
26947;DHT22;14501;52.282;10.560;2023-05-16T07:03:39;12.70;99.90
26947;DHT22;14501;52.282;10.560;2023-05-16T07:06:05;12.70;99.90
26947;DHT22;14501;52.282;10.560;2023-05-16T07:08:30;12.60;99.90
26947;DHT22;14501;52.282;10.560;2023-05-16T07:10:56;12.50;99.90
26947;DHT22;14501;52.282;10.560;2023-05-16T07:13:22;12.50;99.90
26947;DHT22;14501;52.282;10.560;2023-05-16T07:15:47;12.30;99.90
26947;DHT22;14501;52.282;10.560;2023-05-16T07:18:13;12.20;99.90
26947;DHT22;14501;52.282;10.560;2023-05-16T07:20:38;12.30;99.90
26947;DHT22;14501;52.282;10.560;2023-05-16T07:23:04;12.30;99.90
26947;DHT22;14501;52.282;10.560;2023-05-16T07:25:30;12.80;99.90
26947;DHT22;14501;52.282;10.560;2023-05-16T07:27:55;13.20;99.90
26947;DHT22;14501;52.282;10.560;2023-05-16T07:30:21;13.70;99.90
26947;DHT22;14501;52.282;10.560;2023-05-16T07:32:47;14.20;99.90
26947;DHT22;14501;52.282;10.560;2023-05-16T07:35:12;14.50;99.90
26947;DHT22;14501;52.282;10.560;2023-05-16T07:37:38;14.50;99.90
26947;DHT22;14501;52.282;10.560;2023-05-16T07:40:07;14.60;99.90
26947;DHT22;14501;52.282;10.560;2023-05-16T07:42:32;14.50;99.90
26947;DHT22;14501;52.282;10.560;2023-05-16T07:44:58;14.80;99.90
26947;DHT22;14501;52.282;10.560;2023-05-16T07:47:24;15.00;99.90
26947;DHT22;14501;52.282;10.560;2023-05-16T07:49:50;15.20;99.90
26947;DHT22;14501;52.282;10.560;2023-05-16T07:52:15;15.20;99.90
26947;DHT22;14501;52.282;10.560;2023-05-16T07:54:41;15.20;99.90
26947;DHT22;14501;52.282;10.560;2023-05-16T07:57:06;15.30;99.90
26947;DHT22;14501;52.282;10.560;2023-05-16T07:59:32;15.50;99.90
26947;DHT22;14501;52.282;10.560;2023-05-16T08:01:58;15.60;99.90
26947;DHT22;14501;52.282;10.560;2023-05-16T08:04:23;16.10;99.90
26947;DHT22;14501;52.282;10.560;2023-05-16T08:06:49;15.50;99.90
26947;DHT22;14501;52.282;10.560;2023-05-16T08:09:15;15.40;99.90
26947;DHT22;14501;52.282;10.560;2023-05-16T08:11:40;15.20;99.90
26947;DHT22;14501;52.282;10.560;2023-05-16T08:14:09;14.80;99.90
26947;DHT22;14501;52.282;10.560;2023-05-16T08:16:35;14.60;99.90
26947;DHT22;14501;52.282;10.560;2023-05-16T08:19:01;14.50;99.90
26947;DHT22;14501;52.282;10.560;2023-05-16T08:21:26;14.00;99.90
26947;DHT22;14501;52.282;10.560;2023-05-16T08:23:53;14.60;99.90
26947;DHT22;14501;52.282;10.560;2023-05-16T08:26:18;15.30;99.90
26947;DHT22;14501;52.282;10.560;2023-05-16T08:28:45;15.20;99.90
26947;DHT22;14501;52.282;10.560;2023-05-16T08:33:36;16.70;99.90
26947;DHT22;14501;52.282;10.560;2023-05-16T08:36:02;19.20;99.90
26947;DHT22;14501;52.282;10.560;2023-05-16T08:38:28;21.60;99.90
26947;DHT22;14501;52.282;10.560;2023-05-16T08:43:20;21.90;97.50
26947;DHT22;14501;52.282;10.560;2023-05-16T08:45:45;20.80;95.00
26947;DHT22;14501;52.282;10.560;2023-05-16T08:48:11;20.60;96.20
26947;DHT22;14501;52.282;10.560;2023-05-16T08:50:38;20.60;94.60
26947;DHT22;14501;52.282;10.560;2023-05-16T08:53:06;20.50;95.60
26947;DHT22;14501;52.282;10.560;2023-05-16T08:55:34;20.20;95.50
26947;DHT22;14501;52.282;10.560;2023-05-16T08:58:00;19.60;96.10
26947;DHT22;14501;52.282;10.560;2023-05-16T09:00:27;19.10;97.10
26947;DHT22;14501;52.282;10.560;2023-05-16T09:02:52;18.60;97.40
26947;DHT22;14501;52.282;10.560;2023-05-16T09:05:19;18.00;99.00
26947;DHT22;14501;52.282;10.560;2023-05-16T09:07:44;17.80;98.00
26947;DHT22;14501;52.282;10.560;2023-05-16T09:10:11;17.60;99.90
26947;DHT22;14501;52.282;10.560;2023-05-16T09:12:39;17.70;98.30
26947;DHT22;14501;52.282;10.560;2023-05-16T09:15:06;17.60;98.70
26947;DHT22;14501;52.282;10.560;2023-05-16T09:17:37;17.40;98.10
26947;DHT22;14501;52.282;10.560;2023-05-16T09:22:37;20.80;97.70
26947;DHT22;14501;52.282;10.560;2023-05-16T09:25:03;23.40;97.10
26947;DHT22;14501;52.282;10.560;2023-05-16T09:27:30;26.10;90.30
26947;DHT22;14501;52.282;10.560;2023-05-16T09:29:57;28.80;87.00
26947;DHT22;14501;52.282;10.560;2023-05-16T09:32:23;29.50;76.80
26947;DHT22;14501;52.282;10.560;2023-05-16T09:34:49;28.00;74.90
26947;DHT22;14501;52.282;10.560;2023-05-16T09:37:16;26.90;74.10
26947;DHT22;14501;52.282;10.560;2023-05-16T09:42:15;26.60;74.40
26947;DHT22;14501;52.282;10.560;2023-05-16T09:44:46;27.40;76.70
26947;DHT22;14501;52.282;10.560;2023-05-16T09:47:15;29.00;69.40
26947;DHT22;14501;52.282;10.560;2023-05-16T09:49:43;29.30;69.70
26947;DHT22;14501;52.282;10.560;2023-05-16T09:52:09;29.00;68.40
26947;DHT22;14501;52.282;10.560;2023-05-16T09:54:35;28.30;67.40
26947;DHT22;14501;52.282;10.560;2023-05-16T09:57:01;27.90;68.70
26947;DHT22;14501;52.282;10.560;2023-05-16T09:59:34;28.10;71.50
26947;DHT22;14501;52.282;10.560;2023-05-16T10:02:00;28.80;65.80
26947;DHT22;14501;52.282;10.560;2023-05-16T10:04:26;29.80;65.20
26947;DHT22;14501;52.282;10.560;2023-05-16T10:06:54;29.30;66.20
26947;DHT22;14501;52.282;10.560;2023-05-16T10:09:21;28.60;62.00
26947;DHT22;14501;52.282;10.560;2023-05-16T10:11:51;27.70;63.30
26947;DHT22;14501;52.282;10.560;2023-05-16T10:14:17;27.20;67.70
26947;DHT22;14501;52.282;10.560;2023-05-16T10:16:46;27.90;66.00
26947;DHT22;14501;52.282;10.560;2023-05-16T10:19:14;28.70;64.20
26947;DHT22;14501;52.282;10.560;2023-05-16T10:21:45;29.00;66.20
26947;DHT22;14501;52.282;10.560;2023-05-16T10:24:12;29.40;61.80
26947;DHT22;14501;52.282;10.560;2023-05-16T10:26:42;29.30;61.40
26947;DHT22;14501;52.282;10.560;2023-05-16T10:29:08;28.30;61.70
26947;DHT22;14501;52.282;10.560;2023-05-16T10:31:33;28.20;63.00
26947;DHT22;14501;52.282;10.560;2023-05-16T10:34:00;27.60;64.40
26947;DHT22;14501;52.282;10.560;2023-05-16T10:36:26;26.50;66.80
26947;DHT22;14501;52.282;10.560;2023-05-16T10:38:53;25.70;67.90
26947;DHT22;14501;52.282;10.560;2023-05-16T10:41:19;25.20;71.30
26947;DHT22;14501;52.282;10.560;2023-05-16T10:43:55;24.50;72.30
26947;DHT22;14501;52.282;10.560;2023-05-16T10:46:22;24.00;73.10
26947;DHT22;14501;52.282;10.560;2023-05-16T10:48:48;23.10;72.20
26947;DHT22;14501;52.282;10.560;2023-05-16T10:51:36;22.50;73.20
26947;DHT22;14501;52.282;10.560;2023-05-16T10:54:08;22.30;74.60
26947;DHT22;14501;52.282;10.560;2023-05-16T10:56:34;22.50;78.10
26947;DHT22;14501;52.282;10.560;2023-05-16T10:59:01;22.50;78.80
26947;DHT22;14501;52.282;10.560;2023-05-16T11:06:22;21.10;73.80
26947;DHT22;14501;52.282;10.560;2023-05-16T11:11:46;20.80;76.40
26947;DHT22;14501;52.282;10.560;2023-05-16T11:17:01;21.00;77.60
26947;DHT22;14501;52.282;10.560;2023-05-16T11:19:34;21.20;80.90
26947;DHT22;14501;52.282;10.560;2023-05-16T11:22:07;21.10;79.10
26947;DHT22;14501;52.282;10.560;2023-05-16T11:24:34;20.90;81.10
26947;DHT22;14501;52.282;10.560;2023-05-16T11:27:01;21.10;75.70
26947;DHT22;14501;52.282;10.560;2023-05-16T11:31:57;21.00;76.60
26947;DHT22;14501;52.282;10.560;2023-05-16T11:34:23;20.70;76.50
26947;DHT22;14501;52.282;10.560;2023-05-16T11:36:49;19.50;76.90
26947;DHT22;14501;52.282;10.560;2023-05-16T11:39:15;20.10;76.80
26947;DHT22;14501;52.282;10.560;2023-05-16T11:44:06;19.80;81.50
26947;DHT22;14501;52.282;10.560;2023-05-16T11:46:38;19.80;83.20
26947;DHT22;14501;52.282;10.560;2023-05-16T11:51:32;19.10;86.10
26947;DHT22;14501;52.282;10.560;2023-05-16T11:53:59;19.00;85.80
26947;DHT22;14501;52.282;10.560;2023-05-16T11:56:26;18.80;81.60
26947;DHT22;14501;52.282;10.560;2023-05-16T11:58:52;18.70;84.70
26947;DHT22;14501;52.282;10.560;2023-05-16T12:01:18;18.10;84.70
26947;DHT22;14501;52.282;10.560;2023-05-16T12:03:43;18.20;83.90
26947;DHT22;14501;52.282;10.560;2023-05-16T12:06:09;17.80;86.40
26947;DHT22;14501;52.282;10.560;2023-05-16T12:11:01;18.80;86.40
26947;DHT22;14501;52.282;10.560;2023-05-16T12:13:26;18.80;85.00
26947;DHT22;14501;52.282;10.560;2023-05-16T12:18:18;19.40;82.40
26947;DHT22;14501;52.282;10.560;2023-05-16T12:20:45;19.40;84.00
26947;DHT22;14501;52.282;10.560;2023-05-16T12:23:12;19.40;84.70
26947;DHT22;14501;52.282;10.560;2023-05-16T12:25:43;19.00;86.70
26947;DHT22;14501;52.282;10.560;2023-05-16T12:28:11;18.50;80.50
26947;DHT22;14501;52.282;10.560;2023-05-16T12:30:43;18.50;81.40
26947;DHT22;14501;52.282;10.560;2023-05-16T12:33:11;17.90;83.30
26947;DHT22;14501;52.282;10.560;2023-05-16T12:35:39;17.80;86.00
26947;DHT22;14501;52.282;10.560;2023-05-16T12:38:07;17.80;86.30
26947;DHT22;14501;52.282;10.560;2023-05-16T12:40:32;17.70;87.50
26947;DHT22;14501;52.282;10.560;2023-05-16T12:42:58;17.90;91.30
26947;DHT22;14501;52.282;10.560;2023-05-16T12:45:27;18.20;90.00
26947;DHT22;14501;52.282;10.560;2023-05-16T12:47:53;18.10;85.10
26947;DHT22;14501;52.282;10.560;2023-05-16T12:50:19;17.80;85.00
26947;DHT22;14501;52.282;10.560;2023-05-16T12:52:49;17.40;85.30
26947;DHT22;14501;52.282;10.560;2023-05-16T12:55:19;17.30;87.40
26947;DHT22;14501;52.282;10.560;2023-05-16T12:57:45;17.40;87.70
26947;DHT22;14501;52.282;10.560;2023-05-16T13:00:19;17.20;87.30
26947;DHT22;14501;52.282;10.560;2023-05-16T13:02:45;17.60;88.80
26947;DHT22;14501;52.282;10.560;2023-05-16T13:07:50;18.70;83.90
26947;DHT22;14501;52.282;10.560;2023-05-16T13:10:19;18.70;82.50
26947;DHT22;14501;52.282;10.560;2023-05-16T13:12:45;18.70;86.30
26947;DHT22;14501;52.282;10.560;2023-05-16T13:15:11;18.70;86.90
26947;DHT22;14501;52.282;10.560;2023-05-16T13:17:38;19.20;84.40
26947;DHT22;14501;52.282;10.560;2023-05-16T13:20:04;19.20;89.40
26947;DHT22;14501;52.282;10.560;2023-05-16T13:22:41;19.50;83.30
26947;DHT22;14501;52.282;10.560;2023-05-16T13:25:07;19.80;84.00
26947;DHT22;14501;52.282;10.560;2023-05-16T13:27:33;19.50;82.00
26947;DHT22;14501;52.282;10.560;2023-05-16T13:29:59;19.50;84.10
26947;DHT22;14501;52.282;10.560;2023-05-16T13:32:25;19.30;83.80
26947;DHT22;14501;52.282;10.560;2023-05-16T13:34:51;19.50;84.70
26947;DHT22;14501;52.282;10.560;2023-05-16T13:37:17;18.80;80.20
26947;DHT22;14501;52.282;10.560;2023-05-16T13:39:43;18.80;80.80
26947;DHT22;14501;52.282;10.560;2023-05-16T13:42:09;18.40;81.20
26947;DHT22;14501;52.282;10.560;2023-05-16T13:44:34;18.00;84.00
26947;DHT22;14501;52.282;10.560;2023-05-16T13:47:00;18.00;85.40
26947;DHT22;14501;52.282;10.560;2023-05-16T13:49:26;18.10;86.10
26947;DHT22;14501;52.282;10.560;2023-05-16T13:51:51;18.40;89.40
26947;DHT22;14501;52.282;10.560;2023-05-16T13:54:18;18.30;87.10
26947;DHT22;14501;52.282;10.560;2023-05-16T13:56:44;18.40;86.70
26947;DHT22;14501;52.282;10.560;2023-05-16T13:59:10;18.30;86.50
26947;DHT22;14501;52.282;10.560;2023-05-16T14:01:35;18.40;88.90
26947;DHT22;14501;52.282;10.560;2023-05-16T14:04:02;18.40;87.10
26947;DHT22;14501;52.282;10.560;2023-05-16T14:06:27;18.60;85.60
26947;DHT22;14501;52.282;10.560;2023-05-16T14:08:53;18.20;84.00
26947;DHT22;14501;52.282;10.560;2023-05-16T14:11:19;17.80;83.90
26947;DHT22;14501;52.282;10.560;2023-05-16T14:13:47;17.60;86.00
26947;DHT22;14501;52.282;10.560;2023-05-16T14:16:13;17.50;87.60
26947;DHT22;14501;52.282;10.560;2023-05-16T14:18:39;17.50;86.30
26947;DHT22;14501;52.282;10.560;2023-05-16T14:21:05;17.60;85.80
26947;DHT22;14501;52.282;10.560;2023-05-16T14:23:31;17.50;85.40
26947;DHT22;14501;52.282;10.560;2023-05-16T14:25:56;17.60;86.00
26947;DHT22;14501;52.282;10.560;2023-05-16T14:28:22;17.80;85.40
26947;DHT22;14501;52.282;10.560;2023-05-16T14:30:47;17.70;84.70
26947;DHT22;14501;52.282;10.560;2023-05-16T14:33:13;17.50;84.80
26947;DHT22;14501;52.282;10.560;2023-05-16T14:35:39;17.20;86.80
26947;DHT22;14501;52.282;10.560;2023-05-16T14:38:05;17.20;84.90
26947;DHT22;14501;52.282;10.560;2023-05-16T14:40:32;17.10;84.80
26947;DHT22;14501;52.282;10.560;2023-05-16T14:42:58;17.00;87.30
26947;DHT22;14501;52.282;10.560;2023-05-16T14:45:24;16.90;85.60
26947;DHT22;14501;52.282;10.560;2023-05-16T14:47:50;17.10;86.80
26947;DHT22;14501;52.282;10.560;2023-05-16T14:50:16;17.10;87.80
26947;DHT22;14501;52.282;10.560;2023-05-16T14:52:42;17.20;85.50
26947;DHT22;14501;52.282;10.560;2023-05-16T14:55:09;17.20;86.10
26947;DHT22;14501;52.282;10.560;2023-05-16T14:57:35;17.50;86.10
26947;DHT22;14501;52.282;10.560;2023-05-16T15:00:00;17.50;86.90
26947;DHT22;14501;52.282;10.560;2023-05-16T15:02:26;17.50;86.20
26947;DHT22;14501;52.282;10.560;2023-05-16T15:04:52;17.40;84.50
26947;DHT22;14501;52.282;10.560;2023-05-16T15:07:19;17.10;86.10
26947;DHT22;14501;52.282;10.560;2023-05-16T15:09:45;17.00;86.60
26947;DHT22;14501;52.282;10.560;2023-05-16T15:12:10;17.00;85.90
26947;DHT22;14501;52.282;10.560;2023-05-16T15:14:36;17.10;86.90
26947;DHT22;14501;52.282;10.560;2023-05-16T15:17:02;17.20;85.00
26947;DHT22;14501;52.282;10.560;2023-05-16T15:19:28;17.30;83.50
26947;DHT22;14501;52.282;10.560;2023-05-16T15:21:53;17.60;84.90
26947;DHT22;14501;52.282;10.560;2023-05-16T15:24:19;17.70;85.50
26947;DHT22;14501;52.282;10.560;2023-05-16T15:26:45;17.60;85.50
26947;DHT22;14501;52.282;10.560;2023-05-16T15:29:11;17.50;85.00
26947;DHT22;14501;52.282;10.560;2023-05-16T15:31:36;17.30;86.20
26947;DHT22;14501;52.282;10.560;2023-05-16T15:34:02;16.90;85.90
26947;DHT22;14501;52.282;10.560;2023-05-16T15:36:27;16.90;88.00
26947;DHT22;14501;52.282;10.560;2023-05-16T15:38:53;16.80;87.60
26947;DHT22;14501;52.282;10.560;2023-05-16T15:41:19;16.70;88.90
26947;DHT22;14501;52.282;10.560;2023-05-16T15:43:45;16.50;86.20
26947;DHT22;14501;52.282;10.560;2023-05-16T15:46:10;16.50;85.50
26947;DHT22;14501;52.282;10.560;2023-05-16T15:48:37;16.40;85.90
26947;DHT22;14501;52.282;10.560;2023-05-16T15:51:07;16.30;86.50
26947;DHT22;14501;52.282;10.560;2023-05-16T15:53:33;16.20;86.10
26947;DHT22;14501;52.282;10.560;2023-05-16T15:55:59;15.90;86.10
26947;DHT22;14501;52.282;10.560;2023-05-16T15:58:25;15.40;87.40
26947;DHT22;14501;52.282;10.560;2023-05-16T16:00:50;15.20;87.70
26947;DHT22;14501;52.282;10.560;2023-05-16T16:03:16;15.10;87.50
26947;DHT22;14501;52.282;10.560;2023-05-16T16:05:42;15.00;89.40
26947;DHT22;14501;52.282;10.560;2023-05-16T16:08:07;15.00;88.70
26947;DHT22;14501;52.282;10.560;2023-05-16T16:10:33;15.00;89.10
26947;DHT22;14501;52.282;10.560;2023-05-16T16:13:03;15.00;86.80
26947;DHT22;14501;52.282;10.560;2023-05-16T16:15:29;14.90;90.40